createdAt,value
2018-04-23T04:07:53.388Z,93.80
2018-04-23T04:35:29.339Z,93.00
2018-04-23T04:41:33.515Z,93.00
2018-04-23T04:47:40.589Z,92.70
2018-04-23T04:50:10.871Z,92.30
2018-04-23T04:53:14.045Z,92.20
2018-04-23T04:58:35.888Z,92.50
2018-04-23T05:04:35.352Z,93.00
2018-04-23T05:07:05.183Z,91.60
2018-04-23T05:09:33.838Z,92.70
2018-04-23T05:12:02.664Z,91.20
2018-04-23T05:14:31.496Z,91.80
2018-04-23T05:17:01.266Z,91.50
2018-04-23T05:19:30.142Z,91.50
2018-04-23T05:21:59.053Z,91.60
2018-04-23T05:24:27.837Z,91.60
2018-04-23T05:27:00.337Z,88.30
2018-04-23T05:29:29.262Z,89.10
2018-04-23T05:31:59.107Z,87.50
2018-04-23T05:34:28.644Z,87.40
2018-04-23T05:36:57.837Z,88.30
2018-04-23T05:39:26.772Z,87.40
2018-04-23T05:41:55.674Z,88.70
2018-04-23T05:44:46.124Z,86.90
2018-04-23T05:47:16.685Z,90.10
2018-04-23T05:49:45.520Z,89.40
2018-04-23T05:52:14.326Z,90.50
2018-04-23T05:54:46.036Z,89.30
2018-04-23T05:57:15.760Z,86.90
2018-04-23T05:59:45.559Z,80.90
2018-04-23T06:02:15.424Z,82.40
2018-04-23T06:04:43.970Z,82.40
2018-04-23T06:07:13.343Z,72.50
2018-04-23T06:09:42.157Z,72.50
2018-04-23T06:12:11.761Z,75.80
2018-04-23T06:14:41.543Z,66.20
2018-04-23T06:17:10.390Z,66.10
2018-04-23T06:19:39.300Z,67.80
2018-04-23T06:22:09.052Z,61.30
2018-04-23T06:24:37.856Z,61.30
2018-04-23T06:27:07.701Z,63.70
2018-04-23T06:29:36.540Z,63.70
2018-04-23T06:32:05.804Z,62.90
2018-04-23T06:34:34.495Z,59.40
2018-04-23T06:37:03.244Z,57.30
2018-04-23T06:39:32.880Z,54.20
2018-04-23T06:42:01.677Z,54.50
2018-04-23T06:44:30.509Z,55.80
2018-04-23T06:46:59.346Z,56.40
2018-04-23T06:49:28.028Z,49.20
2018-04-23T06:51:57.139Z,52.80
2018-04-23T06:54:25.838Z,51.80
2018-04-23T06:56:54.622Z,52.20
2018-04-23T06:59:22.887Z,50.60
2018-04-23T07:01:51.458Z,53.40
2018-04-23T07:04:20.316Z,49.00
2018-04-23T07:06:49.128Z,52.80
2018-04-23T07:09:17.856Z,47.20
2018-04-23T07:11:47.041Z,48.30
2018-04-23T07:14:15.689Z,48.50
2018-04-23T07:16:44.492Z,47.90
2018-04-23T07:19:14.597Z,46.00
2018-04-23T07:21:43.197Z,46.20
2018-04-23T07:24:12.828Z,45.30
2018-04-23T07:26:41.588Z,45.10
2018-04-23T07:29:11.427Z,40.10
2018-04-23T07:31:40.239Z,40.10
2018-04-23T07:34:09.365Z,38.90
2018-04-23T07:36:38.928Z,38.20
2018-04-23T07:39:07.799Z,36.80
2018-04-23T07:41:37.588Z,39.30
2018-04-23T07:44:06.420Z,38.60
2018-04-23T07:46:35.319Z,32.60
2018-04-23T07:49:04.100Z,31.40
2018-04-23T07:51:32.906Z,31.20
2018-04-23T07:54:01.702Z,32.30
2018-04-23T07:56:30.524Z,31.10
2018-04-23T07:58:59.372Z,31.00
2018-04-23T08:01:28.178Z,30.30
2018-04-23T08:03:57.140Z,31.10
2018-04-23T08:06:26.145Z,29.10
2018-04-23T08:08:54.957Z,29.90
2018-04-23T08:11:23.767Z,26.50
2018-04-23T08:13:52.530Z,29.60
2018-04-23T08:16:21.327Z,30.60
2018-04-23T08:18:50.072Z,28.30
2018-04-23T08:21:19.808Z,29.10
2018-04-23T08:23:48.628Z,29.00
2018-04-23T08:26:17.450Z,27.20
2018-04-23T08:28:47.293Z,29.40
2018-04-23T08:31:16.116Z,29.40
2018-04-23T08:33:44.997Z,27.30
2018-04-23T08:36:13.962Z,29.20
2018-04-23T08:38:42.671Z,26.20
2018-04-23T08:41:12.144Z,27.20
2018-04-23T08:43:41.543Z,26.60
2018-04-23T08:46:11.656Z,27.90
2018-04-23T08:48:40.204Z,28.00
2018-04-23T08:51:09.607Z,26.50
2018-04-23T08:53:38.601Z,28.30
2018-04-23T08:56:08.416Z,27.90
2018-04-23T08:58:37.335Z,27.10
2018-04-23T09:01:06.706Z,28.30
2018-04-23T09:03:36.160Z,26.10
2018-04-23T09:06:04.723Z,23.10
2018-04-23T09:08:33.541Z,25.80
2018-04-23T09:11:03.381Z,27.10
2018-04-23T09:13:32.219Z,27.20
2018-04-23T09:16:01.036Z,25.10
2018-04-23T09:18:31.206Z,23.70
2018-04-23T09:20:59.977Z,23.70
2018-04-23T09:23:28.767Z,27.60
2018-04-23T09:25:57.521Z,26.10
2018-04-23T09:28:27.164Z,25.70
2018-04-23T09:30:56.229Z,25.60
2018-04-23T09:33:25.816Z,25.40
2018-04-23T09:35:54.646Z,25.40
2018-04-23T09:38:23.549Z,24.00
2018-04-23T09:40:52.355Z,26.30
2018-04-23T09:43:21.867Z,24.00
2018-04-23T09:45:50.968Z,26.50
2018-04-23T09:48:19.844Z,26.30
2018-04-23T09:50:48.641Z,24.00
2018-04-23T09:53:17.436Z,25.80
2018-04-23T09:55:46.278Z,25.00
2018-04-23T09:58:16.091Z,26.70
2018-04-23T10:00:45.938Z,23.10
2018-04-23T10:03:15.116Z,23.50
2018-04-23T10:05:43.861Z,23.50
2018-04-23T10:08:12.726Z,22.80
2018-04-23T10:10:41.500Z,22.20
2018-04-23T10:13:10.357Z,24.20
2018-04-23T10:15:40.507Z,24.80
2018-04-23T10:18:09.063Z,24.80
2018-04-23T10:20:38.722Z,22.90
2018-04-23T10:23:07.576Z,22.90
2018-04-23T10:25:36.479Z,24.10
2018-04-23T10:28:06.043Z,21.00
2018-04-23T10:30:34.987Z,21.00
2018-04-23T10:33:03.864Z,21.80
2018-04-23T10:35:33.512Z,21.60
2018-04-23T10:38:03.352Z,20.80
2018-04-23T10:40:32.458Z,20.70
2018-04-23T10:43:01.838Z,23.80
2018-04-23T10:45:30.883Z,23.40
2018-04-23T10:47:59.834Z,25.40
2018-04-23T10:50:28.600Z,26.70
2018-04-23T10:52:57.443Z,22.40
2018-04-23T10:55:26.397Z,23.60
2018-04-23T10:57:55.103Z,22.20
2018-04-23T11:00:23.926Z,23.80
2018-04-23T11:02:54.070Z,25.30
2018-04-23T11:05:22.716Z,25.20
2018-04-23T11:07:51.537Z,27.30
2018-04-23T11:10:21.630Z,29.50
2018-04-23T11:12:50.189Z,29.50
2018-04-23T11:15:18.931Z,31.20
2018-04-23T11:17:48.572Z,37.40
2018-04-23T11:20:17.072Z,37.40
2018-04-23T11:22:45.544Z,43.00
2018-04-23T11:25:14.114Z,44.00
2018-04-23T11:27:42.603Z,47.30
2018-04-23T11:30:11.114Z,46.30
2018-04-23T11:32:39.616Z,68.80
2018-04-23T11:35:09.357Z,73.40
2018-04-23T11:37:37.852Z,73.50
2018-04-23T11:40:07.154Z,79.10
2018-04-23T11:42:35.909Z,80.00
2018-04-23T11:45:05.692Z,90.90
2018-04-23T11:47:34.568Z,90.80
2018-04-23T11:50:03.360Z,91.10
2018-04-23T11:52:32.140Z,92.10
2018-04-23T11:55:01.001Z,83.60
2018-04-23T11:57:29.558Z,82.50
2018-04-23T11:59:58.873Z,71.80
2018-04-23T12:02:28.610Z,70.50
2018-04-23T12:04:57.384Z,70.40
2018-04-23T12:07:27.121Z,47.00
2018-04-23T12:09:55.928Z,46.90
2018-04-23T12:12:24.752Z,51.30
2018-04-23T12:14:53.568Z,52.50
2018-04-23T12:17:22.389Z,47.20
2018-04-23T12:19:51.204Z,53.50
2018-04-23T12:22:20.048Z,47.10
2018-04-23T12:24:48.858Z,46.00
2018-04-23T12:27:18.512Z,43.30
2018-04-23T12:29:48.533Z,41.20
2018-04-23T12:32:23.044Z,39.20
2018-04-23T12:34:52.618Z,39.20
2018-04-23T12:37:23.840Z,38.80
2018-04-23T12:39:54.258Z,40.00
2018-04-23T12:42:23.079Z,39.90
2018-04-23T12:44:51.891Z,39.60
2018-04-23T12:47:20.655Z,40.30
2018-04-23T12:49:49.455Z,35.30
2018-04-23T12:52:18.301Z,36.40
2018-04-23T12:54:48.010Z,42.30
2018-04-23T12:57:17.738Z,45.90
2018-04-23T12:59:46.655Z,45.90
2018-04-23T13:02:15.547Z,41.30
2018-04-23T13:04:44.313Z,41.90
2018-04-23T13:07:13.219Z,43.80
2018-04-23T13:09:42.028Z,39.20
2018-04-23T13:12:11.656Z,42.70
2018-04-23T13:14:40.630Z,42.60
2018-04-23T13:17:09.530Z,43.40
2018-04-23T13:19:38.303Z,44.40
2018-04-23T13:22:06.938Z,45.70
2018-04-23T13:24:35.777Z,42.00
2018-04-23T13:27:05.216Z,43.30
2018-04-23T13:29:33.771Z,42.10
2018-04-23T13:32:02.501Z,44.70
2018-04-23T13:34:31.312Z,45.70
2018-04-23T13:37:00.884Z,44.40
2018-04-23T13:39:29.697Z,44.30
2018-04-23T13:42:01.164Z,48.10
2018-04-23T13:44:30.398Z,38.30
2018-04-23T13:46:59.850Z,40.00
2018-04-23T13:49:29.329Z,40.20
2018-04-23T13:51:58.185Z,40.20
2018-04-23T13:54:27.701Z,47.70
2018-04-23T13:56:57.535Z,54.30
2018-04-23T13:59:26.495Z,54.30
2018-04-23T14:01:55.288Z,50.90
2018-04-23T14:04:24.283Z,41.80
2018-04-23T14:06:53.185Z,36.20
2018-04-23T14:09:22.648Z,39.00
2018-04-23T14:11:52.173Z,39.20
2018-04-23T14:14:21.620Z,35.00
2018-04-23T14:16:50.937Z,35.10
2018-04-23T14:19:20.119Z,34.30
2018-04-23T14:21:50.569Z,38.00
2018-04-23T14:27:12.013Z,41.30
2018-04-23T14:29:41.712Z,44.40
2018-04-23T14:32:11.307Z,44.40
2018-04-23T14:34:42.052Z,38.60
2018-04-23T14:37:11.067Z,36.60
2018-04-23T14:39:49.180Z,39.10
2018-04-23T14:49:38.371Z,44.00
2018-04-23T15:06:34.831Z,43.30
2018-04-23T15:51:17.330Z,52.50
2018-04-23T15:54:04.327Z,51.50
2018-04-23T15:56:37.359Z,50.30
2018-04-23T16:08:48.084Z,57.10
2018-04-23T16:11:17.497Z,57.10
2018-04-23T16:13:48.710Z,59.10
2018-04-23T16:16:17.864Z,59.70
2018-04-23T16:18:46.856Z,61.40
2018-04-23T16:21:16.520Z,68.80
2018-04-23T16:24:11.656Z,68.60
2018-04-23T16:26:47.793Z,74.50
2018-04-23T16:29:22.647Z,74.40
2018-04-23T16:31:59.484Z,76.50
2018-04-23T16:34:29.387Z,78.20
2018-04-23T16:36:59.072Z,80.40
2018-04-23T16:51:04.376Z,94.00
2018-04-23T16:53:33.333Z,95.40
2018-04-23T16:56:19.555Z,97.20
2018-04-23T17:12:46.348Z,99.90
2018-04-23T17:15:15.243Z,99.90
2018-04-23T17:17:44.141Z,99.90
2018-04-23T17:20:13.828Z,99.90
2018-04-23T17:22:42.756Z,99.90
2018-04-23T17:25:11.638Z,99.90
2018-04-23T17:27:41.191Z,99.90
2018-04-23T17:30:13.461Z,99.90
2018-04-23T17:32:42.348Z,99.90
2018-04-23T17:35:11.062Z,99.90
2018-04-23T17:37:39.909Z,99.90
2018-04-23T17:40:11.004Z,99.90
2018-04-23T17:42:40.683Z,99.90
2018-04-23T17:45:09.491Z,99.90
2018-04-23T17:47:43.781Z,99.90
2018-04-23T17:50:19.333Z,99.90
2018-04-23T17:53:15.417Z,99.90
2018-04-23T17:58:58.256Z,99.90
2018-04-23T18:01:27.386Z,99.90
2018-04-23T18:03:56.461Z,99.90
2018-04-23T18:06:25.695Z,99.90
2018-04-23T18:08:55.732Z,99.90
2018-04-23T18:11:24.701Z,99.90
2018-04-23T18:13:53.330Z,99.90
2018-04-23T18:16:24.066Z,99.90
2018-04-23T18:18:53.282Z,99.90
2018-04-23T18:21:22.670Z,99.90
2018-04-23T18:23:52.575Z,99.90
2018-04-23T18:27:13.931Z,99.90
2018-04-23T18:29:43.362Z,99.90
2018-04-23T18:32:13.113Z,99.90
2018-04-23T18:34:41.890Z,99.90
2018-04-23T18:37:10.526Z,99.90
2018-04-23T18:39:39.331Z,99.90
2018-04-23T18:42:08.815Z,99.90
2018-04-23T18:44:40.718Z,99.90
2018-04-23T18:47:10.599Z,99.90
2018-04-23T18:49:39.783Z,99.90
2018-04-23T18:52:09.191Z,99.90
2018-04-23T18:54:39.035Z,99.90
2018-04-23T18:57:07.816Z,99.90
2018-04-23T18:59:37.926Z,99.90
2018-04-23T19:02:07.768Z,99.70
2018-04-23T19:04:37.475Z,98.70
2018-04-23T19:07:06.403Z,98.50
2018-04-23T19:09:35.266Z,97.10
2018-04-23T19:12:04.071Z,95.70
2018-04-23T19:14:32.817Z,95.00
2018-04-23T19:17:01.608Z,94.60
2018-04-23T19:19:30.369Z,93.90
2018-04-23T19:22:00.037Z,93.00
2018-04-23T19:24:29.105Z,93.00
2018-04-23T19:26:57.613Z,93.00
2018-04-23T19:29:26.621Z,93.50
2018-04-23T19:31:55.515Z,94.60
2018-04-23T19:34:27.177Z,95.60
2018-04-23T19:36:57.146Z,97.30
2018-04-23T19:39:37.871Z,99.70
2018-04-23T19:42:15.068Z,99.90
